Time;durP1;ratioP1;P1;durP2;ratioP2;P2;SDS_P1;SDS_P2;PMS_P1;PMS_P2;Temp;Humidity;BMP_temperature;BMP_pressure;BME280_temperature;BME280_humidity;BME280_pressure;Samples;Min_cycle;Max_cycle;Signal;HPM_P1;HPM_P2
2022/03/29 00:01:15;;;;;;;4.32;2.40;;;19.70;55.40;;;;;;4446024;32;20081;-67
2022/03/29 00:03:42;;;;;;;3.55;1.85;;;19.70;55.40;;;;;;4431821;32;20102;-67
2022/03/29 00:06:08;;;;;;;3.75;2.33;;;19.70;55.40;;;;;;4445891;32;20088;-67
2022/03/29 00:08:34;;;;;;;4.60;2.50;;;19.70;55.40;;;;;;4445856;32;20093;-67
2022/03/29 00:11:00;;;;;;;3.30;2.00;;;19.70;55.40;;;;;;4445925;32;20078;-67
2022/03/29 00:13:25;;;;;;;5.00;2.35;;;19.70;55.40;;;;;;4445291;32;20480;-67
2022/03/29 00:15:52;;;;;;;5.68;2.33;;;19.70;55.40;;;;;;4431389;32;20136;-67
2022/03/29 00:18:18;;;;;;;2.72;2.03;;;19.60;55.40;;;;;;4445852;32;20074;-67
2022/03/29 00:20:44;;;;;;;5.78;2.45;;;19.60;56.30;;;;;;4445441;32;20279;-66
2022/03/29 00:23:09;;;;;;;3.63;2.05;;;19.60;55.40;;;;;;4445730;32;20073;-67
2022/03/29 00:25:35;;;;;;;3.80;2.25;;;19.60;55.40;;;;;;4445697;32;20523;-67
2022/03/29 00:28:01;;;;;;;3.90;2.38;;;19.60;55.40;;;;;;4445647;32;20270;-67
2022/03/29 00:30:27;;;;;;;4.35;2.30;;;19.60;55.40;;;;;;4431713;32;20145;-67
2022/03/29 00:32:53;;;;;;;5.45;2.17;;;19.50;55.40;;;;;;4431499;32;20393;-66
2022/03/29 00:35:20;;;;;;;3.38;2.30;;;19.50;55.40;;;;;;4445440;32;20480;-67
2022/03/29 00:37:47;;;;;;;5.55;2.10;;;19.60;55.50;;;;;;4445210;32;20094;-67
2022/03/29 00:40:13;;;;;;;3.78;2.10;;;19.60;55.40;;;;;;4419131;32;20515;-67
2022/03/29 00:42:40;;;;;;;4.20;2.25;;;19.60;55.40;;;;;;4431997;32;20677;-66
2022/03/29 00:45:07;;;;;;;3.05;2.10;;;19.60;55.30;;;;;;4445461;32;20078;-67
2022/03/29 00:47:33;;;;;;;5.22;2.05;;;19.60;55.30;;;;;;4445381;32;20117;-66
2022/03/29 00:49:58;;;;;;;12.48;2.40;;;19.50;55.30;;;;;;4445324;32;20093;-66
2022/03/29 00:52:25;;;;;;;4.68;2.38;;;19.50;55.30;;;;;;4445274;32;20078;-67
2022/03/29 00:54:51;;;;;;;3.97;2.25;;;19.60;55.40;;;;;;4445289;32;20078;-67
2022/03/29 00:57:17;;;;;;;7.20;2.17;;;19.50;55.30;;;;;;4431605;32;20623;-67
2022/03/29 00:59:45;;;;;;;3.97;2.47;;;19.50;55.30;;;;;;4431266;32;20078;-67
2022/03/29 01:02:12;;;;;;;3.25;2.08;;;19.50;55.40;;;;;;4444985;32;20428;-66
2022/03/29 01:04:38;;;;;;;4.68;2.33;;;19.50;55.40;;;;;;4445131;32;20091;-67
2022/03/29 01:07:05;;;;;;;4.18;2.30;;;19.50;55.40;;;;;;4445064;32;20117;-66
2022/03/29 01:09:32;;;;;;;4.18;2.35;;;19.40;55.40;;;;;;4445151;32;20078;-67
2022/03/29 01:11:58;;;;;;;3.55;2.00;;;19.40;55.50;;;;;;4445290;32;20092;-67
2022/03/29 01:14:26;;;;;;;4.00;2.10;;;19.50;55.50;;;;;;4444924;32;20463;-67
2022/03/29 01:19:40;;;;;;;2.95;2.10;;;19.40;55.50;;;;;;4433275;32;20530;-67
2022/03/29 01:22:09;;;;;;;3.42;2.00;;;19.40;55.50;;;;;;4444769;32;20491;-66
2022/03/29 01:24:36;;;;;;;3.55;1.70;;;19.40;55.50;;;;;;4445245;32;20410;-66
2022/03/29 01:27:04;;;;;;;3.28;1.80;;;19.40;55.50;;;;;;4445283;32;20106;-66
2022/03/29 01:29:31;;;;;;;3.35;2.13;;;19.40;55.50;;;;;;4430762;32;20168;-67
2022/03/29 01:31:58;;;;;;;3.50;2.03;;;19.40;56.50;;;;;;4444902;32;20074;-66
2022/03/29 01:34:24;;;;;;;2.72;1.63;;;19.40;55.50;;;;;;4445012;32;20089;-67
2022/03/29 01:36:50;;;;;;;2.22;1.90;;;19.30;55.50;;;;;;4445043;32;20070;-66
2022/03/29 01:39:16;;;;;;;2.10;1.90;;;19.30;55.50;;;;;;4431073;32;20078;-67
2022/03/29 01:41:42;;;;;;;4.07;2.10;;;19.30;55.50;;;;;;4445286;32;20125;-66
2022/03/29 01:44:10;;;;;;;3.05;2.05;;;19.30;55.50;;;;;;4445030;32;20085;-67
2022/03/29 01:46:36;;;;;;;3.33;2.45;;;19.30;56.00;;;;;;4444841;32;20090;-67
2022/03/29 01:49:04;;;;;;;2.58;1.92;;;19.30;55.60;;;;;;4444848;32;20490;-66
2022/03/29 01:51:30;;;;;;;2.53;1.92;;;19.30;55.50;;;;;;4444945;32;20408;-67
2022/03/29 01:53:59;;;;;;;3.80;2.30;;;19.30;55.50;;;;;;4444807;32;20092;-67
2022/03/29 01:56:29;;;;;;;2.75;2.05;;;19.30;55.50;;;;;;4444776;32;20066;-66
2022/03/29 01:58:56;;;;;;;3.70;2.25;;;19.30;55.40;;;;;;4444738;32;20210;-67
2022/03/29 02:01:22;;;;;;;2.58;2.00;;;19.30;55.50;;;;;;4444452;32;20121;-67
2022/03/29 02:03:48;;;;;;;2.85;2.17;;;19.30;55.50;;;;;;4444727;32;20074;-67
2022/03/29 02:06:14;;;;;;;3.30;2.35;;;19.30;55.50;;;;;;4430835;32;20411;-66
2022/03/29 02:08:41;;;;;;;3.50;1.83;;;19.30;55.50;;;;;;4444723;32;20168;-67
2022/03/29 02:11:08;;;;;;;2.95;2.03;;;19.20;55.40;;;;;;4444612;32;20094;-66
2022/03/29 02:13:34;;;;;;;3.75;2.05;;;19.30;55.50;;;;;;4444492;32;20070;-66
2022/03/29 02:15:59;;;;;;;4.93;2.10;;;19.20;55.40;;;;;;4444800;32;20078;-67
2022/03/29 02:18:26;;;;;;;2.75;2.03;;;19.20;55.40;;;;;;4444520;32;20089;-67
2022/03/29 02:20:53;;;;;;;2.90;2.20;;;19.20;55.40;;;;;;4444463;32;20110;-67
2022/03/29 02:23:19;;;;;;;3.35;2.20;;;19.20;55.40;;;;;;4444306;32;20129;-67
2022/03/29 02:25:49;;;;;;;3.35;2.08;;;19.20;55.40;;;;;;4444641;32;20081;-67
2022/03/29 02:28:15;;;;;;;3.30;2.13;;;19.20;55.40;;;;;;4446555;32;20141;-66
2022/03/29 02:30:41;;;;;;;3.85;1.95;;;19.20;55.40;;;;;;4447096;32;20224;-67
2022/03/29 02:33:07;;;;;;;2.83;2.08;;;19.20;55.40;;;;;;4447160;32;20078;-67
2022/03/29 02:35:33;;;;;;;3.10;2.10;;;19.20;55.40;;;;;;4447128;32;20084;-66
2022/03/29 02:38:00;;;;;;;2.60;2.17;;;19.20;55.40;;;;;;4447093;32;20078;-66
2022/03/29 02:40:26;;;;;;;2.58;1.95;;;19.20;55.40;;;;;;4447008;32;20086;-67
2022/03/29 02:42:54;;;;;;;3.35;2.38;;;19.10;55.40;;;;;;4446928;32;20122;-67
2022/03/29 02:45:24;;;;;;;3.45;2.10;;;19.10;55.40;;;;;;4446978;32;20129;-66
2022/03/29 02:47:56;;;;;;;3.60;2.05;;;19.20;55.50;;;;;;4447010;32;20100;-66
2022/03/29 02:50:23;;;;;;;2.67;1.95;;;19.10;55.40;;;;;;4447069;32;20089;-67
2022/03/29 02:52:50;;;;;;;3.92;2.30;;;19.10;55.40;;;;;;4432787;32;20082;-67
2022/03/29 02:55:18;;;;;;;3.55;2.30;;;19.10;55.40;;;;;;4447103;32;20078;-66
2022/03/29 02:57:45;;;;;;;2.40;2.03;;;19.10;55.40;;;;;;4447058;32;20179;-67
2022/03/29 03:00:15;;;;;;;3.97;2.25;;;19.10;55.40;;;;;;4446478;32;20078;-67
2022/03/29 03:02:45;;;;;;;3.35;1.98;;;19.10;55.40;;;;;;4446918;32;20148;-67
2022/03/29 03:05:12;;;;;;;5.20;1.90;;;19.10;55.40;;;;;;4446936;32;20408;-67
2022/03/29 03:07:39;;;;;;;3.33;2.30;;;19.10;55.30;;;;;;4446707;32;20086;-66
2022/03/29 03:10:06;;;;;;;2.60;1.90;;;19.00;55.40;;;;;;4446339;32;20235;-67
2022/03/29 03:12:46;;;;;;;4.25;2.30;;;19.10;55.40;;;;;;4446719;32;20133;-67
2022/03/29 03:15:15;;;;;;;3.92;2.53;;;19.10;55.30;;;;;;4447166;32;20121;-67
2022/03/29 03:17:41;;;;;;;3.42;2.10;;;19.10;55.40;;;;;;4446509;32;20092;-67
2022/03/29 03:20:08;;;;;;;2.97;2.50;;;19.10;55.40;;;;;;4446734;32;20104;-66
2022/03/29 03:22:38;;;;;;;3.38;2.10;;;19.00;55.30;;;;;;4446245;32;20487;-67
2022/03/29 03:25:05;;;;;;;2.88;1.95;;;19.00;55.30;;;;;;4446948;32;20085;-67
2022/03/29 03:27:31;;;;;;;3.33;2.30;;;19.00;55.30;;;;;;4446362;32;20427;-66
2022/03/29 03:29:57;;;;;;;4.28;2.50;;;19.00;55.40;;;;;;4446410;32;20124;-66
2022/03/29 03:32:23;;;;;;;3.40;2.20;;;19.00;55.40;;;;;;4432388;32;20098;-67
2022/03/29 03:34:49;;;;;;;2.42;2.10;;;19.00;55.40;;;;;;4445956;32;20121;-67
2022/03/29 03:37:15;;;;;;;2.85;1.95;;;19.00;55.40;;;;;;4446453;32;20283;-66
2022/03/29 03:39:41;;;;;;;3.67;2.47;;;19.00;55.40;;;;;;4431631;32;20074;-66
2022/03/29 03:42:09;;;;;;;2.47;1.85;;;19.00;55.40;;;;;;4446563;32;20137;-66
2022/03/29 03:44:36;;;;;;;3.88;1.90;;;19.00;55.40;;;;;;4445920;32;20070;-66
2022/03/29 03:47:03;;;;;;;2.75;2.22;;;18.90;55.30;;;;;;4446467;32;20196;-66
2022/03/29 03:49:29;;;;;;;2.47;2.10;;;18.90;55.30;;;;;;4446416;32;20092;-66
2022/03/29 03:51:55;;;;;;;4.32;2.25;;;18.90;55.30;;;;;;4432226;32;20070;-66
2022/03/29 03:54:21;;;;;;;3.20;2.15;;;18.90;55.30;;;;;;4432237;32;20062;-66
2022/03/29 03:56:47;;;;;;;2.85;2.10;;;18.90;55.30;;;;;;4445811;32;20447;-66
2022/03/29 03:59:13;;;;;;;3.20;2.13;;;18.90;55.30;;;;;;4446080;32;20102;-66
2022/03/29 04:01:39;;;;;;;3.78;2.38;;;18.90;55.30;;;;;;4446022;32;20133;-67
2022/03/29 04:04:05;;;;;;;4.18;2.20;;;18.90;55.30;;;;;;4445929;32;20150;-66
2022/03/29 04:06:31;;;;;;;5.72;2.20;;;18.90;55.40;;;;;;4445872;32;20054;-67
2022/03/29 04:08:56;;;;;;;3.10;2.00;;;18.90;55.40;;;;;;4445934;32;20156;-67
2022/03/29 04:11:22;;;;;;;3.30;2.17;;;18.90;55.40;;;;;;4445791;32;20110;-67
2022/03/29 04:13:48;;;;;;;3.78;2.55;;;18.90;55.40;;;;;;4445964;32;20062;-66
2022/03/29 04:16:14;;;;;;;3.78;2.00;;;18.80;55.30;;;;;;4445542;32;20185;-66
2022/03/29 04:18:39;;;;;;;2.85;2.05;;;18.80;55.40;;;;;;4445984;32;20066;-67
2022/03/29 04:21:08;;;;;;;2.95;1.95;;;18.80;55.40;;;;;;4445884;32;20082;-66
2022/03/29 04:23:35;;;;;;;3.38;2.28;;;18.80;55.40;;;;;;4445661;32;20300;-67
2022/03/29 04:26:02;;;;;;;4.28;1.98;;;18.80;55.40;;;;;;4445831;32;20078;-66
2022/03/29 04:28:28;;;;;;;2.17;1.98;;;18.80;55.40;;;;;;4445770;32;20167;-67
2022/03/29 04:30:55;;;;;;;2.17;1.70;;;18.80;55.40;;;;;;4445499;32;20097;-67
2022/03/29 04:33:24;;;;;;;3.80;1.92;;;18.80;55.40;;;;;;4445262;32;20074;-67
2022/03/29 04:35:50;;;;;;;3.72;2.30;;;18.80;55.40;;;;;;4445522;32;20516;-67
2022/03/29 04:38:16;;;;;;;4.85;1.98;;;18.80;55.40;;;;;;4445435;32;20066;-66
2022/03/29 04:40:42;;;;;;;3.60;2.05;;;18.80;55.40;;;;;;4445343;32;20083;-67
2022/03/29 04:43:08;;;;;;;3.22;1.80;;;18.70;55.40;;;;;;4444994;32;20396;-67
2022/03/29 04:45:34;;;;;;;2.35;2.00;;;18.80;55.40;;;;;;4431073;32;20215;-67
2022/03/29 04:47:59;;;;;;;3.88;2.05;;;18.80;55.40;;;;;;4445180;32;20081;-67
2022/03/29 04:50:26;;;;;;;4.32;2.10;;;18.70;55.40;;;;;;4444868;32;20070;-67
2022/03/29 04:52:52;;;;;;;3.15;2.25;;;18.70;55.40;;;;;;4445388;32;20070;-66
2022/03/29 04:55:19;;;;;;;2.58;2.10;;;18.70;55.40;;;;;;4445291;32;20373;-66
2022/03/29 04:57:47;;;;;;;2.75;2.00;;;18.70;55.50;;;;;;4445256;32;20496;-66
2022/03/29 05:00:15;;;;;;;2.72;2.10;;;18.70;55.50;;;;;;4445474;32;20543;-67
2022/03/29 05:02:43;;;;;;;2.88;2.15;;;18.70;56.40;;;;;;4431182;32;20158;-66
2022/03/29 05:05:10;;;;;;;2.95;2.17;;;18.70;55.50;;;;;;4445361;32;20229;-67
2022/03/29 05:07:43;;;;;;;2.67;1.98;;;18.70;55.50;;;;;;4445273;32;20408;-66
2022/03/29 05:10:10;;;;;;;3.63;1.85;;;18.70;55.50;;;;;;4445273;32;20105;-67
2022/03/29 05:12:47;;;;;;;4.30;2.33;;;18.70;55.50;;;;;;4445178;32;20070;-67
2022/03/29 05:15:14;;;;;;;2.72;2.03;;;18.70;55.50;;;;;;4445062;32;20164;-67
2022/03/29 05:17:42;;;;;;;2.00;1.80;;;18.70;55.50;;;;;;4445318;32;20376;-67
2022/03/29 05:20:08;;;;;;;2.80;2.15;;;18.70;55.50;;;;;;4444927;32;20200;-66
2022/03/29 05:22:45;;;;;;;3.08;2.30;;;18.70;55.50;;;;;;4444953;32;20104;-67
2022/03/29 05:25:12;;;;;;;2.80;2.15;;;18.60;55.40;;;;;;4445003;32;20082;-66
2022/03/29 05:27:39;;;;;;;2.85;2.22;;;18.60;55.50;;;;;;4445188;32;20166;-67
2022/03/29 05:30:05;;;;;;;2.90;2.03;;;18.60;55.40;;;;;;4444817;32;20093;-67
2022/03/29 05:32:31;;;;;;;3.35;2.10;;;18.60;55.50;;;;;;4444875;32;20252;-66
2022/03/29 05:34:57;;;;;;;3.47;2.28;;;18.60;55.50;;;;;;4444939;32;20271;-66
2022/03/29 05:37:23;;;;;;;3.05;2.00;;;18.60;55.50;;;;;;4444879;32;20090;-67
2022/03/29 05:39:49;;;;;;;3.10;1.92;;;18.60;55.40;;;;;;4444578;32;20515;-66
2022/03/29 05:42:15;;;;;;;3.13;2.13;;;18.60;55.50;;;;;;4431199;32;20070;-66
2022/03/29 05:44:41;;;;;;;3.67;2.10;;;18.60;55.50;;;;;;4444672;32;20460;-66
2022/03/29 05:49:52;;;;;;;3.63;2.28;;;18.60;55.50;;;;;;4445043;32;20396;-66
2022/03/29 05:52:20;;;;;;;3.25;1.98;;;18.50;55.40;;;;;;4444717;32;20093;-66
2022/03/29 05:54:46;;;;;;;2.78;2.20;;;18.60;55.50;;;;;;4444906;32;20098;-66
2022/03/29 05:57:17;;;;;;;3.28;2.28;;;18.60;55.50;;;;;;4444534;32;20559;-66
2022/03/29 05:59:43;;;;;;;4.18;2.20;;;18.60;55.50;;;;;;4444798;32;20092;-66
2022/03/29 06:02:10;;;;;;;3.70;2.20;;;18.60;55.50;;;;;;4446230;32;20439;-67
2022/03/29 06:04:36;;;;;;;2.45;1.90;;;18.50;55.50;;;;;;4448104;32;20074;-67
2022/03/29 06:07:06;;;;;;;3.30;2.33;;;18.50;55.50;;;;;;4447870;32;20086;-67
2022/03/29 06:09:33;;;;;;;3.55;2.40;;;18.50;55.40;;;;;;4447031;32;20220;-66
2022/03/29 06:12:00;;;;;;;3.58;2.30;;;18.50;55.50;;;;;;4433827;32;20082;-67
2022/03/29 06:14:25;;;;;;;2.55;2.25;;;18.50;55.50;;;;;;4447377;32;20088;-67
2022/03/29 06:16:51;;;;;;;3.22;2.20;;;18.50;55.50;;;;;;4433720;32;20074;-66
2022/03/29 06:19:18;;;;;;;3.28;2.08;;;18.50;55.50;;;;;;4447262;32;20362;-66
2022/03/29 06:21:44;;;;;;;3.65;2.30;;;18.50;55.50;;;;;;4447294;32;20228;-66
2022/03/29 06:24:11;;;;;;;3.55;2.13;;;18.50;55.50;;;;;;4447483;32;20129;-66
2022/03/29 06:26:41;;;;;;;3.17;2.25;;;18.50;55.50;;;;;;4447465;32;20078;-66
2022/03/29 06:29:08;;;;;;;4.45;2.28;;;18.50;55.50;;;;;;4433543;32;20140;-66
2022/03/29 06:31:34;;;;;;;3.55;2.30;;;18.50;55.50;;;;;;4433582;32;20078;-67
2022/03/29 06:34:00;;;;;;;2.58;1.85;;;18.40;55.40;;;;;;4433409;32;20074;-66
2022/03/29 06:36:26;;;;;;;2.72;2.20;;;18.50;55.40;;;;;;4447040;32;20439;-67
2022/03/29 06:38:53;;;;;;;2.67;2.08;;;18.50;55.50;;;;;;4447200;32;20117;-67
2022/03/29 06:41:19;;;;;;;2.88;2.08;;;18.50;55.40;;;;;;4446857;32;20063;-67
2022/03/29 06:43:45;;;;;;;3.45;2.40;;;18.40;55.90;;;;;;4447317;32;20569;-66
2022/03/29 06:46:11;;;;;;;2.67;2.30;;;18.50;55.50;;;;;;4432899;32;20089;-66
2022/03/29 06:48:38;;;;;;;4.13;2.30;;;18.40;55.40;;;;;;4447367;32;20412;-67
2022/03/29 06:51:04;;;;;;;3.88;2.22;;;18.50;55.50;;;;;;4446952;32;20559;-67
2022/03/29 06:53:30;;;;;;;3.50;2.20;;;18.40;55.40;;;;;;4432992;32;20078;-66
2022/03/29 06:55:56;;;;;;;3.17;2.38;;;18.40;55.40;;;;;;4447090;32;20172;-67
2022/03/29 06:58:22;;;;;;;4.43;2.85;;;18.40;55.40;;;;;;4447224;32;20078;-66
2022/03/29 07:00:48;;;;;;;7.82;3.10;;;18.40;55.20;;;;;;4433104;32;20141;-67
2022/03/29 07:03:14;;;;;;;8.55;4.68;;;18.40;54.80;;;;;;4447051;32;20176;-67
2022/03/29 07:05:42;;;;;;;9.95;4.95;;;18.40;54.30;;;;;;4446875;32;20066;-67
2022/03/29 07:08:12;;;;;;;11.65;4.65;;;18.40;53.80;;;;;;4446653;32;20094;-66
2022/03/29 07:13:23;;;;;;;8.63;4.53;;;18.40;54.20;;;;;;4446920;32;20521;-66
2022/03/29 07:15:50;;;;;;;8.93;4.45;;;18.40;54.60;;;;;;4446950;32;20078;-66
2022/03/29 07:18:16;;;;;;;11.85;4.35;;;18.40;54.80;;;;;;4446417;32;20084;-67
2022/03/29 07:20:42;;;;;;;8.02;4.53;;;18.40;54.80;;;;;;4446653;32;20243;-67
2022/03/29 07:23:08;;;;;;;11.25;4.65;;;18.40;54.80;;;;;;4438420;32;20066;-66
2022/03/29 07:25:36;;;;;;;8.30;4.68;;;18.40;54.90;;;;;;4445754;32;20196;-67
2022/03/29 07:28:02;;;;;;;8.35;4.55;;;18.40;54.80;;;;;;4446401;32;20078;-65
2022/03/29 07:30:28;;;;;;;9.52;4.35;;;18.40;54.80;;;;;;4446680;32;20133;-67
2022/03/29 07:32:57;;;;;;;7.18;4.35;;;18.40;54.80;;;;;;4446694;32;20136;-67
2022/03/29 07:35:25;;;;;;;7.20;4.25;;;18.40;54.80;;;;;;4446203;32;20593;-66
2022/03/29 07:37:51;;;;;;;8.82;4.60;;;18.40;54.80;;;;;;4446454;32;20397;-67
2022/03/29 07:40:20;;;;;;;10.35;4.57;;;18.50;54.80;;;;;;4446646;32;20086;-67
2022/03/29 07:42:46;;;;;;;8.32;4.30;;;18.50;54.60;;;;;;4446155;32;20063;-67
2022/03/29 07:45:12;;;;;;;9.18;4.03;;;18.50;54.50;;;;;;4445016;32;20089;-67
2022/03/29 07:47:41;;;;;;;7.47;3.88;;;18.60;54.50;;;;;;4446044;32;20118;-67
2022/03/29 07:50:08;;;;;;;8.23;3.80;;;18.60;54.30;;;;;;4446378;32;20066;-66
2022/03/29 07:52:38;;;;;;;9.23;3.75;;;18.70;54.30;;;;;;4445834;32;20129;-67
2022/03/29 07:55:06;;;;;;;7.35;4.00;;;18.80;54.00;;;;;;4446276;32;20082;-67
2022/03/29 07:57:33;;;;;;;8.20;4.18;;;18.90;53.80;;;;;;4432227;32;20626;-67
2022/03/29 07:59:59;;;;;;;8.00;3.38;;;19.00;53.50;;;;;;4446099;32;20086;-67
2022/03/29 08:02:25;;;;;;;7.18;3.35;;;19.10;53.30;;;;;;4446303;32;20070;-67
2022/03/29 08:04:51;;;;;;;7.28;3.83;;;19.20;53.10;;;;;;4445798;32;20172;-66
2022/03/29 08:07:17;;;;;;;7.15;3.88;;;19.30;52.90;;;;;;4445943;32;20172;-68
2022/03/29 08:09:43;;;;;;;8.73;4.03;;;19.40;52.90;;;;;;4445799;32;20627;-66
2022/03/29 08:12:08;;;;;;;5.05;3.20;;;19.40;52.70;;;;;;4445561;32;20188;-67
2022/03/29 08:14:34;;;;;;;7.78;3.40;;;19.50;52.70;;;;;;4445413;32;20092;-66
2022/03/29 08:17:00;;;;;;;8.50;2.85;;;19.60;52.70;;;;;;4444691;32;20070;-66
2022/03/29 08:19:26;;;;;;;6.38;3.17;;;19.60;52.70;;;;;;4445796;32;20503;-66
2022/03/29 08:21:52;;;;;;;10.07;3.83;;;19.70;52.60;;;;;;4445542;32;20074;-67
2022/03/29 08:24:21;;;;;;;11.32;3.25;;;19.70;52.20;;;;;;4443096;32;20078;-66
2022/03/29 08:26:49;;;;;;;13.07;3.83;;;19.80;52.10;;;;;;4445656;32;20089;-66
2022/03/29 08:29:16;;;;;;;9.63;4.47;;;19.80;51.80;;;;;;4445806;32;20228;-67
2022/03/29 08:31:43;;;;;;;7.82;3.92;;;19.90;51.70;;;;;;4445440;32;20558;-67
2022/03/29 08:34:10;;;;;;;11.43;3.70;;;19.90;51.50;;;;;;4445649;32;20090;-67
2022/03/29 08:36:38;;;;;;;5.40;3.40;;;20.00;51.40;;;;;;4445787;32;20508;-66
2022/03/29 08:39:07;;;;;;;14.38;4.03;;;20.10;51.30;;;;;;4444221;32;20124;-66
2022/03/29 08:41:50;;;;;;;10.55;4.18;;;20.10;51.20;;;;;;4445208;32;20102;-67
2022/03/29 08:44:16;;;;;;;8.35;3.65;;;20.10;51.20;;;;;;4445097;32;20077;-68
2022/03/29 08:46:46;;;;;;;9.15;3.72;;;20.10;51.20;;;;;;4445567;32;20093;-67
2022/03/29 08:49:14;;;;;;;10.77;3.95;;;20.10;51.30;;;;;;4444262;32;20117;-67
2022/03/29 08:51:40;;;;;;;11.20;3.60;;;20.10;51.40;;;;;;4445113;32;20183;-67
2022/03/29 08:54:07;;;;;;;13.57;3.92;;;20.10;51.40;;;;;;4444989;32;20086;-68
2022/03/29 08:56:33;;;;;;;13.20;3.65;;;20.10;51.40;;;;;;4445281;32;20094;-67
2022/03/29 08:58:59;;;;;;;12.60;3.63;;;20.20;51.50;;;;;;4445186;32;20419;-67
2022/03/29 09:01:25;;;;;;;10.00;3.75;;;20.20;51.50;;;;;;4445325;32;20498;-67
2022/03/29 09:04:11;;;;;;;9.40;3.55;;;20.20;51.40;;;;;;4445143;32;20462;-67
2022/03/29 09:06:57;;;;;;;9.90;3.60;;;20.30;51.50;;;;;;4444932;32;20200;-67
2022/03/29 09:09:24;;;;;;;11.65;3.55;;;20.30;51.40;;;;;;4443768;32;20078;-67
2022/03/29 09:11:51;;;;;;;9.75;3.80;;;20.30;51.30;;;;;;4445260;32;20192;-67
2022/03/29 09:14:18;;;;;;;7.53;3.53;;;20.30;51.30;;;;;;4444946;32;20078;-68
2022/03/29 09:16:44;;;;;;;7.78;3.53;;;20.30;51.30;;;;;;4444966;32;20133;-68
2022/03/29 09:19:11;;;;;;;8.13;3.45;;;20.40;51.30;;;;;;4444936;32;20066;-76
2022/03/29 09:21:44;;;;;;;8.30;3.50;;;20.40;51.30;;;;;;4444989;32;20215;-77
2022/03/29 09:24:14;;;;;;;8.82;3.50;;;20.30;51.20;;;;;;4444947;32;20408;-66
2022/03/29 09:26:46;;;;;;;11.43;3.53;;;20.30;51.00;;;;;;4445209;32;20094;-67
2022/03/29 09:29:18;;;;;;;10.73;3.10;;;20.30;51.00;;;;;;4430820;32;20092;-67
2022/03/29 09:31:45;;;;;;;10.20;3.47;;;20.30;51.00;;;;;;4445205;32;20228;-67
2022/03/29 09:34:11;;;;;;;8.63;3.15;;;20.30;51.10;;;;;;4445035;32;20129;-67
2022/03/29 09:36:50;;;;;;;8.35;3.20;;;20.30;51.20;;;;;;4445445;32;20117;-66
2022/03/29 09:39:40;;;;;;;9.57;3.35;;;20.30;51.20;;;;;;4447604;32;20160;-67
2022/03/29 09:42:13;;;;;;;7.28;3.00;;;20.30;51.30;;;;;;4447585;32;20063;-67
2022/03/29 09:44:47;;;;;;;11.07;3.55;;;20.30;51.30;;;;;;4447923;32;20086;-66
2022/03/29 09:47:20;;;;;;;10.60;3.63;;;20.30;50.90;;;;;;4448018;32;20439;-66
2022/03/29 09:50:07;;;;;;;12.23;4.07;;;20.20;50.40;;;;;;4448315;32;20070;-66
2022/03/29 09:52:46;;;;;;;13.90;4.43;;;20.10;49.20;;;;;;4448042;32;20757;-67
2022/03/29 09:55:21;;;;;;;11.40;4.15;;;20.10;48.80;;;;;;4448317;32;20124;-66
2022/03/29 09:57:47;;;;;;;9.25;4.43;;;20.00;48.50;;;;;;4447710;32;20537;-66
2022/03/29 10:00:19;;;;;;;13.82;4.60;;;20.00;48.30;;;;;;4447604;32;20066;-67
2022/03/29 10:02:47;;;;;;;;;;;19.90;48.00;;;;;;4448822;32;20082;-67
2022/03/29 10:05:17;;;;;;;11.10;4.45;;;19.90;47.50;;;;;;4447988;32;19994;-67
2022/03/29 10:07:47;;;;;;;12.88;4.70;;;19.80;48.20;;;;;;4447793;32;20085;-66
2022/03/29 10:10:13;;;;;;;15.32;5.10;;;19.80;48.10;;;;;;4448129;32;20070;-67
2022/03/29 10:12:39;;;;;;;14.38;4.78;;;19.70;47.90;;;;;;4447572;32;20140;-67
2022/03/29 10:15:06;;;;;;;13.50;4.90;;;19.60;47.40;;;;;;4447503;32;20089;-66
2022/03/29 10:17:33;;;;;;;12.00;4.53;;;19.60;47.30;;;;;;4447154;32;20105;-66
2022/03/29 10:20:01;;;;;;;15.10;4.18;;;19.50;47.10;;;;;;4447522;32;20188;-66
2022/03/29 10:22:27;;;;;;;14.05;4.45;;;19.50;47.30;;;;;;4446981;32;20078;-67
2022/03/29 10:24:53;;;;;;;12.85;4.30;;;19.50;47.30;;;;;;4447492;32;20074;-66
2022/03/29 10:27:21;;;;;;;18.50;4.85;;;19.50;47.40;;;;;;4447368;32;20515;-66
2022/03/29 10:29:48;;;;;;;12.95;4.75;;;19.50;47.50;;;;;;4447279;32;20078;-67
2022/03/29 10:32:28;;;;;;;14.73;4.35;;;19.40;47.70;;;;;;4447180;32;20457;-67
2022/03/29 10:35:08;;;;;;;17.63;4.38;;;19.40;47.60;;;;;;4447269;32;20220;-67
2022/03/29 10:37:55;;;;;;;13.50;4.35;;;19.40;47.80;;;;;;4447547;32;20212;-67
2022/03/29 10:40:39;;;;;;;11.40;3.78;;;19.40;47.90;;;;;;4447394;32;20492;-67
2022/03/29 10:43:25;;;;;;;;;;;19.40;48.10;;;;;;4448075;32;20106;-67
2022/03/29 10:45:50;;;;;;;13.43;4.57;;;19.30;48.10;;;;;;4447136;32;20421;-67
2022/03/29 10:48:17;;;;;;;10.85;3.65;;;19.30;48.50;;;;;;4446628;32;20480;-67
2022/03/29 10:50:58;;;;;;;16.58;4.20;;;19.30;48.50;;;;;;4446612;32;20066;-66
2022/03/29 10:53:35;;;;;;;14.88;4.07;;;19.30;48.50;;;;;;4447229;32;20207;-67
2022/03/29 10:56:11;;;;;;;14.27;4.28;;;19.30;48.70;;;;;;4446783;32;20066;-67
2022/03/29 10:59:02;;;;;;;14.95;3.95;;;19.30;48.80;;;;;;4446337;32;20235;-66
2022/03/29 11:01:29;;;;;;;18.77;4.43;;;19.30;48.90;;;;;;4446564;32;20100;-68
2022/03/29 11:04:16;;;;;;;11.55;3.90;;;19.20;49.10;;;;;;4446502;32;20160;-67
2022/03/29 11:07:04;;;;;;;15.27;4.32;;;19.20;49.20;;;;;;4446838;32;20096;-68
2022/03/29 11:09:30;;;;;;;13.75;3.72;;;19.20;49.30;;;;;;4446605;32;20070;-69
2022/03/29 11:11:56;;;;;;;10.15;3.75;;;19.20;49.50;;;;;;4446601;32;20100;-69
2022/03/29 11:14:35;;;;;;;13.38;4.00;;;19.20;49.60;;;;;;4446802;32;20089;-69
2022/03/29 11:17:08;;;;;;;12.32;4.13;;;19.20;49.70;;;;;;4447082;32;20078;-69
2022/03/29 11:19:50;;;;;;;11.43;3.97;;;19.20;49.90;;;;;;4447095;32;20228;-69
2022/03/29 11:22:42;;;;;;;12.57;3.75;;;19.20;50.00;;;;;;4446721;32;20070;-69
2022/03/29 11:25:12;;;;;;;12.50;3.97;;;19.20;50.10;;;;;;4431603;32;20082;-69
2022/03/29 11:27:39;;;;;;;13.40;3.97;;;19.10;50.20;;;;;;4430301;32;20492;-69
2022/03/29 11:30:10;;;;;;;12.55;3.80;;;19.20;50.50;;;;;;4431372;32;20401;-69
2022/03/29 11:32:41;;;;;;;10.02;3.83;;;19.20;50.60;;;;;;4417400;32;20066;-68
2022/03/29 11:35:08;;;;;;;18.60;5.25;;;19.20;50.50;;;;;;4431447;32;20087;-69
2022/03/29 11:37:38;;;;;;;15.95;5.45;;;19.10;49.90;;;;;;4431004;32;20098;-69
2022/03/29 11:40:06;;;;;;;11.93;4.75;;;19.10;49.50;;;;;;4431527;32;20114;-69
2022/03/29 11:42:45;;;;;;;12.93;5.68;;;19.10;49.30;;;;;;4430432;32;20125;-69
2022/03/29 11:45:12;;;;;;;16.73;4.97;;;19.00;48.80;;;;;;4430609;32;20137;-68
2022/03/29 11:47:39;;;;;;;19.70;5.53;;;19.00;48.90;;;;;;4431000;32;20110;-69
2022/03/29 11:50:05;;;;;;;19.88;6.18;;;19.00;48.80;;;;;;4417173;32;20239;-68
2022/03/29 11:52:36;;;;;;;12.13;5.32;;;18.90;48.60;;;;;;4429720;32;20532;-69
2022/03/29 11:55:15;;;;;;;17.42;5.82;;;18.90;48.40;;;;;;4430974;32;20093;-67
2022/03/29 11:57:41;;;;;;;15.15;6.25;;;18.90;48.10;;;;;;4431096;32;20528;-67
2022/03/29 12:00:24;;;;;;;19.98;5.55;;;18.90;48.10;;;;;;4430307;32;20216;-68
2022/03/29 12:02:52;;;;;;;17.27;6.00;;;18.90;47.80;;;;;;4430768;32;20594;-68
2022/03/29 12:05:24;;;;;;;12.63;5.70;;;18.90;47.90;;;;;;4430746;32;20197;-68
2022/03/29 12:08:03;;;;;;;18.80;6.20;;;18.80;47.60;;;;;;4430537;32;20164;-68
2022/03/29 12:10:36;;;;;;;17.40;5.95;;;18.90;47.40;;;;;;4430685;32;20500;-68
2022/03/29 12:13:03;;;;;;;15.18;6.22;;;18.90;47.40;;;;;;4430701;32;20126;-69
2022/03/29 12:15:29;;;;;;;14.43;5.43;;;18.80;47.10;;;;;;4429600;32;20086;-68
2022/03/29 12:20:45;;;;;;;13.60;5.97;;;18.80;46.90;;;;;;4430916;32;20097;-68
2022/03/29 12:23:27;;;;;;;13.85;5.68;;;18.80;46.90;;;;;;4421783;32;20073;-68
2022/03/29 12:25:56;;;;;;;;;;;18.80;46.50;;;;;;4446678;32;20086;-68
2022/03/29 12:28:23;;;;;;;18.35;5.80;;;18.80;46.30;;;;;;4445927;32;19970;-68
2022/03/29 12:30:51;;;;;;;14.13;5.97;;;18.80;46.80;;;;;;4445828;32;20113;-68
2022/03/29 12:33:17;;;;;;;16.40;6.85;;;18.80;46.50;;;;;;4445832;32;20519;-68
2022/03/29 12:35:44;;;;;;;13.88;4.88;;;18.70;46.20;;;;;;4445565;32;20093;-66
2022/03/29 12:38:13;;;;;;;14.50;5.50;;;18.80;46.30;;;;;;4445161;32;20122;-67
2022/03/29 12:40:39;;;;;;;15.43;5.18;;;18.80;46.40;;;;;;4445403;32;20093;-67
2022/03/29 12:43:07;;;;;;;15.98;4.97;;;18.80;46.50;;;;;;4445293;32;20140;-67
2022/03/29 12:45:34;;;;;;;12.13;5.10;;;18.80;46.70;;;;;;4445358;32;20144;-67
2022/03/29 12:48:02;;;;;;;12.63;4.40;;;18.80;46.80;;;;;;4445261;32;20216;-67
2022/03/29 12:50:29;;;;;;;11.88;4.90;;;18.80;46.90;;;;;;4444235;32;20082;-67
2022/03/29 12:53:09;;;;;;;13.20;4.90;;;18.80;47.10;;;;;;4445497;32;20074;-67
2022/03/29 12:55:35;;;;;;;11.07;4.88;;;18.80;47.20;;;;;;4445468;32;20104;-66
2022/03/29 12:58:03;;;;;;;11.02;4.10;;;18.90;47.30;;;;;;4444871;32;20092;-67
2022/03/29 13:00:41;;;;;;;11.68;5.00;;;18.80;47.30;;;;;;4445199;32;20160;-67
2022/03/29 13:03:10;;;;;;;11.35;4.57;;;18.90;47.50;;;;;;4444904;32;20519;-66